sensor_id;sensor_type;location;lat;lon;timestamp;P1;durP1;ratioP1;P2;durP2;ratioP2
51010;SDS011;37038;50.182;8.624;2022-11-15T00:00:53;24.52;;;18.60;;
51010;SDS011;37038;50.182;8.624;2022-11-15T00:03:41;29.25;;;20.05;;
51010;SDS011;37038;50.182;8.624;2022-11-15T00:06:32;24.08;;;19.10;;
51010;SDS011;37038;50.182;8.624;2022-11-15T00:09:20;27.52;;;20.75;;
51010;SDS011;37038;50.182;8.624;2022-11-15T00:12:07;20.98;;;17.08;;
51010;SDS011;37038;50.182;8.624;2022-11-15T00:14:55;22.20;;;17.45;;
51010;SDS011;37038;50.182;8.624;2022-11-15T00:17:43;22.58;;;18.75;;
51010;SDS011;37038;50.182;8.624;2022-11-15T00:20:33;24.98;;;17.60;;
51010;SDS011;37038;50.182;8.624;2022-11-15T00:23:21;21.27;;;17.33;;
51010;SDS011;37038;50.182;8.624;2022-11-15T00:26:10;28.48;;;18.25;;
51010;SDS011;37038;50.182;8.624;2022-11-15T00:29:00;24.55;;;18.67;;
51010;SDS011;37038;50.182;8.624;2022-11-15T00:31:48;24.67;;;18.25;;
51010;SDS011;37038;50.182;8.624;2022-11-15T00:34:36;25.58;;;19.90;;
51010;SDS011;37038;50.182;8.624;2022-11-15T00:37:24;23.23;;;18.80;;
51010;SDS011;37038;50.182;8.624;2022-11-15T00:40:12;23.65;;;19.83;;
51010;SDS011;37038;50.182;8.624;2022-11-15T00:43:00;26.95;;;20.75;;
51010;SDS011;37038;50.182;8.624;2022-11-15T00:45:48;25.80;;;20.55;;
51010;SDS011;37038;50.182;8.624;2022-11-15T00:48:36;30.58;;;22.30;;
51010;SDS011;37038;50.182;8.624;2022-11-15T00:51:24;28.05;;;21.40;;
51010;SDS011;37038;50.182;8.624;2022-11-15T00:54:12;29.00;;;22.40;;
51010;SDS011;37038;50.182;8.624;2022-11-15T00:57:00;29.02;;;22.70;;
51010;SDS011;37038;50.182;8.624;2022-11-15T00:59:48;27.50;;;21.25;;
51010;SDS011;37038;50.182;8.624;2022-11-15T01:02:36;27.77;;;20.13;;
51010;SDS011;37038;50.182;8.624;2022-11-15T01:05:24;28.50;;;20.77;;
51010;SDS011;37038;50.182;8.624;2022-11-15T01:08:15;24.83;;;19.75;;
51010;SDS011;37038;50.182;8.624;2022-11-15T01:11:04;25.60;;;18.98;;
51010;SDS011;37038;50.182;8.624;2022-11-15T01:13:55;29.95;;;21.02;;
51010;SDS011;37038;50.182;8.624;2022-11-15T01:16:43;22.60;;;19.80;;
51010;SDS011;37038;50.182;8.624;2022-11-15T01:19:31;30.33;;;20.83;;
51010;SDS011;37038;50.182;8.624;2022-11-15T01:22:19;26.75;;;20.23;;
51010;SDS011;37038;50.182;8.624;2022-11-15T01:25:07;26.80;;;20.23;;
51010;SDS011;37038;50.182;8.624;2022-11-15T01:27:55;27.13;;;21.00;;
51010;SDS011;37038;50.182;8.624;2022-11-15T01:30:43;32.90;;;22.88;;
51010;SDS011;37038;50.182;8.624;2022-11-15T01:33:33;27.98;;;22.27;;
51010;SDS011;37038;50.182;8.624;2022-11-15T01:36:25;29.15;;;22.83;;
51010;SDS011;37038;50.182;8.624;2022-11-15T01:39:13;29.15;;;23.42;;
51010;SDS011;37038;50.182;8.624;2022-11-15T01:42:02;34.55;;;23.75;;
51010;SDS011;37038;50.182;8.624;2022-11-15T01:44:51;30.90;;;22.98;;
51010;SDS011;37038;50.182;8.624;2022-11-15T01:47:46;23.75;;;19.50;;
51010;SDS011;37038;50.182;8.624;2022-11-15T01:50:39;28.52;;;20.60;;
51010;SDS011;37038;50.182;8.624;2022-11-15T01:53:27;28.10;;;20.73;;
51010;SDS011;37038;50.182;8.624;2022-11-15T01:56:19;25.98;;;20.27;;
51010;SDS011;37038;50.182;8.624;2022-11-15T01:59:13;24.98;;;20.45;;
51010;SDS011;37038;50.182;8.624;2022-11-15T02:02:01;27.48;;;20.05;;
51010;SDS011;37038;50.182;8.624;2022-11-15T02:04:49;24.77;;;20.05;;
51010;SDS011;37038;50.182;8.624;2022-11-15T02:07:37;24.00;;;18.60;;
51010;SDS011;37038;50.182;8.624;2022-11-15T02:10:25;23.67;;;18.27;;
51010;SDS011;37038;50.182;8.624;2022-11-15T02:13:14;23.88;;;18.98;;
51010;SDS011;37038;50.182;8.624;2022-11-15T02:29:33;23.17;;;17.27;;
51010;SDS011;37038;50.182;8.624;2022-11-15T02:32:45;25.75;;;17.58;;
51010;SDS011;37038;50.182;8.624;2022-11-15T02:38:54;21.27;;;16.27;;
51010;SDS011;37038;50.182;8.624;2022-11-15T02:41:53;18.25;;;15.07;;
51010;SDS011;37038;50.182;8.624;2022-11-15T02:48:18;22.20;;;16.08;;
51010;SDS011;37038;50.182;8.624;2022-11-15T02:51:08;21.48;;;16.17;;
51010;SDS011;37038;50.182;8.624;2022-11-15T02:53:57;22.48;;;17.08;;
51010;SDS011;37038;50.182;8.624;2022-11-15T02:56:44;24.30;;;16.55;;
51010;SDS011;37038;50.182;8.624;2022-11-15T02:59:41;26.15;;;16.92;;
51010;SDS011;37038;50.182;8.624;2022-11-15T03:13:01;24.40;;;18.13;;
51010;SDS011;37038;50.182;8.624;2022-11-15T03:22:39;26.05;;;18.98;;
51010;SDS011;37038;50.182;8.624;2022-11-15T03:25:31;26.30;;;20.98;;
51010;SDS011;37038;50.182;8.624;2022-11-15T03:28:22;25.85;;;19.80;;
51010;SDS011;37038;50.182;8.624;2022-11-15T03:31:17;27.95;;;17.60;;
51010;SDS011;37038;50.182;8.624;2022-11-15T03:34:45;21.80;;;17.38;;
51010;SDS011;37038;50.182;8.624;2022-11-15T03:37:44;24.77;;;18.92;;
51010;SDS011;37038;50.182;8.624;2022-11-15T03:40:51;25.70;;;19.33;;
51010;SDS011;37038;50.182;8.624;2022-11-15T03:43:58;22.45;;;19.50;;
51010;SDS011;37038;50.182;8.624;2022-11-15T03:50:10;23.55;;;18.33;;
51010;SDS011;37038;50.182;8.624;2022-11-15T03:53:03;22.08;;;18.25;;
51010;SDS011;37038;50.182;8.624;2022-11-15T03:55:51;23.05;;;19.50;;
51010;SDS011;37038;50.182;8.624;2022-11-15T03:58:39;22.00;;;17.45;;
51010;SDS011;37038;50.182;8.624;2022-11-15T04:01:26;27.95;;;18.25;;
51010;SDS011;37038;50.182;8.624;2022-11-15T04:04:14;23.52;;;17.88;;
51010;SDS011;37038;50.182;8.624;2022-11-15T04:07:05;20.35;;;18.00;;
51010;SDS011;37038;50.182;8.624;2022-11-15T04:09:55;20.15;;;17.25;;
51010;SDS011;37038;50.182;8.624;2022-11-15T04:12:52;23.02;;;18.27;;
51010;SDS011;37038;50.182;8.624;2022-11-15T04:15:40;21.10;;;17.38;;
51010;SDS011;37038;50.182;8.624;2022-11-15T04:18:28;18.40;;;16.40;;
51010;SDS011;37038;50.182;8.624;2022-11-15T04:21:16;20.80;;;16.42;;
51010;SDS011;37038;50.182;8.624;2022-11-15T04:24:24;22.50;;;16.77;;
51010;SDS011;37038;50.182;8.624;2022-11-15T04:27:12;22.10;;;17.63;;
51010;SDS011;37038;50.182;8.624;2022-11-15T04:30:00;21.60;;;17.05;;
51010;SDS011;37038;50.182;8.624;2022-11-15T04:32:48;18.85;;;15.80;;
51010;SDS011;37038;50.182;8.624;2022-11-15T04:35:36;19.40;;;15.20;;
51010;SDS011;37038;50.182;8.624;2022-11-15T04:38:24;20.52;;;16.00;;
51010;SDS011;37038;50.182;8.624;2022-11-15T04:41:12;19.98;;;15.07;;
51010;SDS011;37038;50.182;8.624;2022-11-15T04:44:00;20.52;;;15.20;;
51010;SDS011;37038;50.182;8.624;2022-11-15T04:46:48;17.63;;;14.10;;
51010;SDS011;37038;50.182;8.624;2022-11-15T04:49:36;17.42;;;15.35;;
51010;SDS011;37038;50.182;8.624;2022-11-15T04:52:24;17.67;;;13.85;;
51010;SDS011;37038;50.182;8.624;2022-11-15T04:55:11;21.42;;;15.05;;
51010;SDS011;37038;50.182;8.624;2022-11-15T04:58:00;17.73;;;13.95;;
51010;SDS011;37038;50.182;8.624;2022-11-15T05:00:49;21.38;;;15.25;;
51010;SDS011;37038;50.182;8.624;2022-11-15T05:03:37;19.10;;;14.30;;
51010;SDS011;37038;50.182;8.624;2022-11-15T05:06:44;21.33;;;16.05;;
51010;SDS011;37038;50.182;8.624;2022-11-15T05:09:36;15.73;;;13.45;;
51010;SDS011;37038;50.182;8.624;2022-11-15T05:55:29;17.50;;;14.53;;
51010;SDS011;37038;50.182;8.624;2022-11-15T05:59:41;17.38;;;14.48;;
51010;SDS011;37038;50.182;8.624;2022-11-15T06:44:06;24.88;;;14.00;;
51010;SDS011;37038;50.182;8.624;2022-11-15T08:33:50;16.17;;;11.18;;
51010;SDS011;37038;50.182;8.624;2022-11-15T10:26:27;15.90;;;11.52;;
51010;SDS011;37038;50.182;8.624;2022-11-15T10:29:22;15.73;;;11.95;;
51010;SDS011;37038;50.182;8.624;2022-11-15T11:41:56;10.60;;;7.22;;
51010;SDS011;37038;50.182;8.624;2022-11-15T11:51:52;9.60;;;7.32;;
51010;SDS011;37038;50.182;8.624;2022-11-15T12:05:32;12.45;;;7.43;;
51010;SDS011;37038;50.182;8.624;2022-11-15T12:19:45;8.45;;;6.55;;
51010;SDS011;37038;50.182;8.624;2022-11-15T12:26:02;8.73;;;6.43;;
51010;SDS011;37038;50.182;8.624;2022-11-15T12:29:26;6.10;;;5.53;;
51010;SDS011;37038;50.182;8.624;2022-11-15T12:32:49;7.90;;;6.25;;
51010;SDS011;37038;50.182;8.624;2022-11-15T12:52:24;8.85;;;7.03;;
51010;SDS011;37038;50.182;8.624;2022-11-15T12:57:54;9.40;;;7.15;;
51010;SDS011;37038;50.182;8.624;2022-11-15T13:57:37;14.80;;;9.43;;
51010;SDS011;37038;50.182;8.624;2022-11-15T14:15:45;11.82;;;8.32;;
51010;SDS011;37038;50.182;8.624;2022-11-15T14:33:45;8.63;;;6.28;;
51010;SDS011;37038;50.182;8.624;2022-11-15T16:10:38;23.67;;;16.05;;
51010;SDS011;37038;50.182;8.624;2022-11-15T16:24:12;16.50;;;14.05;;
51010;SDS011;37038;50.182;8.624;2022-11-15T16:37:48;22.42;;;15.02;;
51010;SDS011;37038;50.182;8.624;2022-11-15T17:20:27;18.55;;;13.57;;
51010;SDS011;37038;50.182;8.624;2022-11-15T17:29:10;16.38;;;12.48;;
51010;SDS011;37038;50.182;8.624;2022-11-15T21:03:43;16.13;;;10.05;;
51010;SDS011;37038;50.182;8.624;2022-11-15T21:07:52;14.98;;;10.02;;
51010;SDS011;37038;50.182;8.624;2022-11-15T21:51:01;11.13;;;9.93;;
51010;SDS011;37038;50.182;8.624;2022-11-15T21:58:59;13.25;;;10.70;;
51010;SDS011;37038;50.182;8.624;2022-11-15T22:03:24;12.73;;;10.65;;
51010;SDS011;37038;50.182;8.624;2022-11-15T22:07:47;13.23;;;11.18;;
51010;SDS011;37038;50.182;8.624;2022-11-15T22:11:33;16.23;;;11.32;;
51010;SDS011;37038;50.182;8.624;2022-11-15T22:15:33;15.40;;;9.88;;
51010;SDS011;37038;50.182;8.624;2022-11-15T22:19:39;15.07;;;10.85;;
51010;SDS011;37038;50.182;8.624;2022-11-15T22:23:26;12.15;;;10.85;;
51010;SDS011;37038;50.182;8.624;2022-11-15T22:27:38;14.95;;;10.93;;
51010;SDS011;37038;50.182;8.624;2022-11-15T22:31:18;13.90;;;9.70;;
51010;SDS011;37038;50.182;8.624;2022-11-15T22:34:30;13.45;;;10.25;;
51010;SDS011;37038;50.182;8.624;2022-11-15T22:37:38;13.05;;;10.82;;
51010;SDS011;37038;50.182;8.624;2022-11-15T22:41:06;14.73;;;10.73;;
51010;SDS011;37038;50.182;8.624;2022-11-15T22:49:25;17.40;;;9.85;;
51010;SDS011;37038;50.182;8.624;2022-11-15T23:05:09;12.90;;;10.82;;
51010;SDS011;37038;50.182;8.624;2022-11-15T23:09:06;15.68;;;11.18;;
51010;SDS011;37038;50.182;8.624;2022-11-15T23:40:01;18.88;;;12.50;;
51010;SDS011;37038;50.182;8.624;2022-11-15T23:43:08;13.43;;;11.85;;
51010;SDS011;37038;50.182;8.624;2022-11-15T23:49:14;18.20;;;12.18;;
51010;SDS011;37038;50.182;8.624;2022-11-15T23:52:10;18.90;;;12.43;;
51010;SDS011;37038;50.182;8.624;2022-11-15T23:55:09;16.90;;;11.73;;
51010;SDS011;37038;50.182;8.624;2022-11-15T23:58:06;25.63;;;11.38;;
